Salty Pause — WDF8240 — position and weather

sailwx.info

Track history (hours):
 
Tides and Currents Weather Stations Pressure Air Temp Water Temp Dewpoint Dewpoint Depression Visibility Wind Speed Wind Dir Waves Ship Positions

Salty Pause

Owner: Volk DVM, Donald J, Orono, ME. More information available from US FCC via Universal Licensing System and Coast Guard Vessel Documentation Center.

Last reported at 2018-Feb-18 20:23 UTC. Time now 2018-Feb-19 08:29 UTC.
Position N 16°48' W 062°14'.

Length 13 m.

Type: Sailing vessel. MMSI: 367492850.

Date/timePositionNaut miles runAvg speedWind from/ knotsBaromVisibWave heightAir tempDewpointWater temp
2018-Feb-18 20:23N 16°48' W 062°14'69 1.4
2018-Feb-16 20:24N 17°40' W 063°02'3 7.1
2018-Feb-16 19:56N 17°43' W 063°03'4 6.9
2018-Feb-16 19:24N 17°47' W 063°03'3 6.9
2018-Feb-16 18:55N 17°50' W 063°04'3 6.9
2018-Feb-16 18:25N 17°54' W 063°05'4 6.9
2018-Feb-16 17:53N 17°57' W 063°05'3 6.9
2018-Feb-16 17:24N 18°01' W 063°06'2 3.7
2018-Feb-16 16:59N 18°02' W 063°06'0 0.1
2018-Feb-16 16:21N 18°02' W 063°06'0 0.0
2018-Feb-16 15:54N 18°02' W 063°06'0 0.0
2018-Feb-16 15:24N 18°02' W 063°06'0 0.0
2018-Feb-16 14:54N 18°02' W 063°06'0 0.0
2018-Feb-16 14:24N 18°02' W 063°06'0 0.0
2018-Feb-16 13:54N 18°02' W 063°06'0 0.0
2018-Feb-16 13:24N 18°02' W 063°06'0 0.0
2018-Feb-16 12:57N 18°02' W 063°06'0 0.7
2018-Feb-16 12:23N 18°02' W 063°06'0 0.0
2018-Feb-16 11:53N 18°02' W 063°06'0 0.0
2018-Feb-16 11:23N 18°02' W 063°06'0 0.0
2018-Feb-16 10:56N 18°02' W 063°06'0 0.0
2018-Feb-16 10:26N 18°02' W 063°06'0 0.0
2018-Feb-16 09:53N 18°02' W 063°06'0 0.0
2018-Feb-16 09:26N 18°02' W 063°06'0 0.0
2018-Feb-16 08:56N 18°02' W 063°06'0 0.0
2018-Feb-16 08:29N 18°02' W 063°06'0 0.0
2018-Feb-16 07:59N 18°02' W 063°06'0 0.0
2018-Feb-16 07:29N 18°02' W 063°06'0 0.0
2018-Feb-16 06:59N 18°02' W 063°06'0 0.0
2018-Feb-16 06:26N 18°02' W 063°06'0 0.0
2018-Feb-16 05:59N 18°02' W 063°06'0 0.0
2018-Feb-16 05:29N 18°02' W 063°06'0 0.0
2018-Feb-16 04:14N 18°02' W 063°06'0 0.0
2018-Feb-16 03:59N 18°02' W 063°06'0 0.0
2018-Feb-16 03:29N 18°02' W 063°06'0 0.0
2018-Feb-16 02:59N 18°02' W 063°06'0 0.0
2018-Feb-16 02:02N 18°02' W 063°06'0 0.0
2018-Feb-16 01:35N 18°02' W 063°06'0 0.0
2018-Feb-16 01:17N 18°02' W 063°06'0 0.0
2018-Feb-16 00:50N 18°02' W 063°06'0 0.0
2018-Feb-16 00:20N 18°02' W 063°06'0 0.0
2018-Feb-15 23:53N 18°02' W 063°06'0 0.0
2018-Feb-15 23:08N 18°02' W 063°06'0 0.0
2018-Feb-15 22:50N 18°02' W 063°06'0 0.0
2018-Feb-15 22:08N 18°02' W 063°06'0 0.0
2018-Feb-15 21:50N 18°02' W 063°06'0 0.0
2018-Feb-15 21:26N 18°02' W 063°06'0 0.0
2018-Feb-15 20:56N 18°02' W 063°06'0 0.0
2018-Feb-15 20:26N 18°02' W 063°06'0 0.0
2018-Feb-15 19:56N 18°02' W 063°06'0 0.0
2018-Feb-15 17:29N 18°02' W 063°06'0 0.0
2018-Feb-15 16:59N 18°02' W 063°06'0 0.0
2018-Feb-15 15:47N 18°02' W 063°06'0 0.0
2018-Feb-15 15:29N 18°02' W 063°06'0 0.0
2018-Feb-15 14:59N 18°02' W 063°06'0 0.0
2018-Feb-15 13:50N 18°02' W 063°06'0 0.0
2018-Feb-15 13:20N 18°02' W 063°06'0 0.0
2018-Feb-15 12:50N 18°02' W 063°06'0 0.0
2018-Feb-15 12:20N 18°02' W 063°06'0 0.0
2018-Feb-15 11:50N 18°02' W 063°06'0 0.0
2018-Feb-15 11:23N 18°02' W 063°06'0 0.0
2018-Feb-15 10:53N 18°02' W 063°06'0 0.0
2018-Feb-15 10:20N 18°02' W 063°06'0 0.0
2018-Feb-15 09:56N 18°02' W 063°06'0 0.0
2018-Feb-15 09:20N 18°02' W 063°06'0 0.0
2018-Feb-15 08:08N 18°02' W 063°06'0 0.0
2018-Feb-15 07:56N 18°02' W 063°06'0 0.0
2018-Feb-15 07:29N 18°02' W 063°06'0 0.0
2018-Feb-15 06:59N 18°02' W 063°06'0 0.0
2018-Feb-15 06:14N 18°02' W 063°06'0 0.0
2018-Feb-15 05:59N 18°02' W 063°06'0 0.0
2018-Feb-15 05:26N 18°02' W 063°06'0 0.0
2018-Feb-15 04:59N 18°02' W 063°06'0 0.0
2018-Feb-15 04:29N 18°02' W 063°06'0 0.0
2018-Feb-15 03:56N 18°02' W 063°06'0 0.0
2018-Feb-15 03:29N 18°02' W 063°06'0 0.0
2018-Feb-15 02:59N 18°02' W 063°06'0 0.0
2018-Feb-15 02:14N 18°02' W 063°06'0 0.0
2018-Feb-15 01:59N 18°02' W 063°06'0 0.0
2018-Feb-15 01:20N 18°02' W 063°06'0 0.0
2018-Feb-15 00:20N 18°02' W 063°06'0 0.0
2018-Feb-14 23:47N 18°02' W 063°06'0 0.0
2018-Feb-14 22:38N 18°02' W 063°06'0 0.0
2018-Feb-14 21:38N 18°02' W 063°06'0 0.0
2018-Feb-14 21:20N 18°02' W 063°06'0 0.0
2018-Feb-14 20:53N 18°02' W 063°06'0 0.0
2018-Feb-14 20:26N 18°02' W 063°06'0 0.0
2018-Feb-14 19:41N 18°02' W 063°06'0 0.0
2018-Feb-14 19:26N 18°02' W 063°06'0 0.0
2018-Feb-14 18:53N 18°02' W 063°06'0 0.0
2018-Feb-14 18:26N 18°02' W 063°06'0 0.0
2018-Feb-14 17:56N 18°02' W 063°06'0 0.0
2018-Feb-14 17:29N 18°02' W 063°06'0 0.0
2018-Feb-14 16:59N 18°02' W 063°06'0 0.0
2018-Feb-14 16:29N 18°02' W 063°06'0 0.0
2018-Feb-14 15:56N 18°02' W 063°06'0 0.0
2018-Feb-14 15:29N 18°02' W 063°06'0 0.0
2018-Feb-14 14:59N 18°02' W 063°06'0 0.0
2018-Feb-14 14:02N 18°02' W 063°06'0 0.0
2018-Feb-14 13:59N 18°02' W 063°06'0 0.0
2018-Feb-14 13:29N 18°02' W 063°06'0 0.0
2018-Feb-14 12:44N 18°02' W 063°06'0 0.0
2018-Feb-14 12:29N 18°02' W 063°06'0 0.0
2018-Feb-14 11:59N 18°02' W 063°06'0 0.0
2018-Feb-14 11:29N 18°02' W 063°06'0 0.0
2018-Feb-14 10:47N 18°02' W 063°06'0 0.0
2018-Feb-14 10:20N 18°02' W 063°06'0 0.0
2018-Feb-14 09:50N 18°02' W 063°06'0 0.0
2018-Feb-14 09:20N 18°02' W 063°06'0 0.0
2018-Feb-14 08:50N 18°02' W 063°06'0 0.0
2018-Feb-14 08:23N 18°02' W 063°06'0 0.0
2018-Feb-14 07:38N 18°02' W 063°06'0 0.0
2018-Feb-14 07:23N 18°02' W 063°06'0 0.0
2018-Feb-14 06:50N 18°02' W 063°06'0 0.0
2018-Feb-14 06:11N 18°02' W 063°06'0 0.0
2018-Feb-14 05:53N 18°02' W 063°06'0 0.0
2018-Feb-14 05:26N 18°02' W 063°06'0 0.0
2018-Feb-14 04:41N 18°02' W 063°06'0 0.0
2018-Feb-14 04:23N 18°02' W 063°06'0 0.0
2018-Feb-14 03:59N 18°02' W 063°06'0 0.0
2018-Feb-14 02:56N 18°02' W 063°06'0 0.0
2018-Feb-14 02:14N 18°02' W 063°06'0 0.0
2018-Feb-14 01:59N 18°02' W 063°06'0 0.0
2018-Feb-14 01:29N 18°02' W 063°06'0 0.0
2018-Feb-14 00:47N 18°02' W 063°06'0 0.0
2018-Feb-14 00:29N 18°02' W 063°06'0 0.0
2018-Feb-13 23:59N 18°02' W 063°06'0 0.0
2018-Feb-13 23:02N 18°02' W 063°06'0 0.1
2018-Feb-13 22:59N 18°02' W 063°06'0 0.0
2018-Feb-13 22:17N 18°02' W 063°06'0 0.0
2018-Feb-13 21:59N 18°02' W 063°06'0 0.0
2018-Feb-13 20:47N 18°02' W 063°06'0 0.0
2018-Feb-13 20:20N 18°02' W 063°06'0 0.0
2018-Feb-13 19:50N 18°02' W 063°06'0 0.0
2018-Feb-13 19:17N 18°02' W 063°06'0 0.0
2018-Feb-13 18:53N 18°02' W 063°06'0 0.0
2018-Feb-13 18:23N 18°02' W 063°06'0 0.0
2018-Feb-13 13:03N 18°02' W 063°06'0 0.0
2018-Feb-13 13:00N 18°02' W 063°06'0 0.0
2018-Feb-13 12:30N 18°02' W 063°06'0 0.0
2018-Feb-13 12:00N 18°02' W 063°06'0 0.0
2018-Feb-13 11:15N 18°02' W 063°06'0 0.0
2018-Feb-13 10:51N 18°02' W 063°06'0 0.0
2018-Feb-13 10:18N 18°02' W 063°06'0 0.0
2018-Feb-13 09:51N 18°02' W 063°06'0 0.0
2018-Feb-13 09:18N 18°02' W 063°06'0 0.0
2018-Feb-13 08:18N 18°02' W 063°06'0 0.0
2018-Feb-13 07:54N 18°02' W 063°06'0 0.0
2018-Feb-13 07:22N 18°02' W 063°06'0 0.0
2018-Feb-13 06:54N 18°02' W 063°06'0 0.0
2018-Feb-13 06:24N 18°02' W 063°06'0 0.0
2018-Feb-13 05:24N 18°02' W 063°06'0 0.0
2018-Feb-13 04:54N 18°02' W 063°06'0 0.0
2018-Feb-13 04:27N 18°02' W 063°06'0 0.0
2018-Feb-13 03:54N 18°02' W 063°06'0 0.0
2018-Feb-13 03:27N 18°02' W 063°06'0 0.0
2018-Feb-13 03:00N 18°02' W 063°06'0 0.0
2018-Feb-13 02:24N 18°02' W 063°06'0 0.0
2018-Feb-13 02:00N 18°02' W 063°06'0 0.0
2018-Feb-13 01:30N 18°02' W 063°06'0 0.0
2018-Feb-13 01:00N 18°02' W 063°06'0 0.0
2018-Feb-13 00:30N 18°02' W 063°06'0 0.0
2018-Feb-12 23:45N 18°02' W 063°06'0 0.0
2018-Feb-12 23:12N 18°02' W 063°06'0 0.0
2018-Feb-12 22:57N 18°02' W 063°06'0 0.0
2018-Feb-12 22:30N 18°02' W 063°06'0 0.0
2018-Feb-12 21:45N 18°02' W 063°06'0 0.0
2018-Feb-12 21:30N 18°02' W 063°06'0 0.0
2018-Feb-12 21:00N 18°02' W 063°06'0 0.0
2018-Feb-12 20:30N 18°02' W 063°06'0 0.0
2018-Feb-12 19:51N 18°02' W 063°06'0 0.0
2018-Feb-12 19:18N 18°02' W 063°06'0 0.0
2018-Feb-12 18:51N 18°02' W 063°06'0 0.0
2018-Feb-12 18:24N 18°02' W 063°06'0 0.0
2018-Feb-12 17:54N 18°02' W 063°06'0 0.0
2018-Feb-12 17:21N 18°02' W 063°06'0 0.0
2018-Feb-12 16:54N 18°02' W 063°06'0 0.0
2018-Feb-12 16:12N 18°02' W 063°06'0 0.0
2018-Feb-12 15:06N 18°02' W 063°06'0 0.0
2018-Feb-12 14:36N 18°02' W 063°06'0 0.0
2018-Feb-12 14:27N 18°02' W 063°06'0 0.0
2018-Feb-12 13:39N 18°02' W 063°06'0 0.0
2018-Feb-12 13:27N 18°02' W 063°06'0 0.0
2018-Feb-12 13:00N 18°02' W 063°06'0 0.0
2018-Feb-12 12:30N 18°02' W 063°06'0 0.0
2018-Feb-12 11:45N 18°02' W 063°06'0 0.0
2018-Feb-12 11:30N 18°02' W 063°06'0 0.0
2018-Feb-12 11:00N 18°02' W 063°06'0 0.0
2018-Feb-12 10:30N 18°02' W 063°06'0 0.0
2018-Feb-12 09:27N 18°02' W 063°06'0 0.0
2018-Feb-12 09:00N 18°02' W 063°06'0 0.0
2018-Feb-12 08:30N 18°02' W 063°06'0 0.0
2018-Feb-12 08:00N 18°02' W 063°06'0 0.0
2018-Feb-12 07:30N 18°02' W 063°06'0 0.0
2018-Feb-12 07:00N 18°02' W 063°06'0 0.0
2018-Feb-12 06:06N 18°02' W 063°06'0 0.0
2018-Feb-12 05:49N 18°02' W 063°06'0 0.0
2018-Feb-12 05:24N 18°02' W 063°06'0 0.0
2018-Feb-12 04:48N 18°02' W 063°06'0 0.0
2018-Feb-12 04:21N 18°02' W 063°06'0 0.0
2018-Feb-12 03:57N 18°02' W 063°06'0 0.0
2018-Feb-12 03:21N 18°02' W 063°06'0 0.0
2018-Feb-12 02:54N 18°02' W 063°06'0 0.0
2018-Feb-12 02:24N 18°02' W 063°06'0 0.0
2018-Feb-12 01:42N 18°02' W 063°06'0 0.0
2018-Feb-12 01:27N 18°02' W 063°06'0 0.0
2018-Feb-12 00:57N 18°02' W 063°06'0 0.0
2018-Feb-12 00:27N 18°02' W 063°06'0 0.0
2018-Feb-11 23:57N 18°02' W 063°06'0 0.0
2018-Feb-11 23:30N 18°02' W 063°06'0 0.0
2018-Feb-11 23:00N 18°02' W 063°06'0 0.0
2018-Feb-11 22:30N 18°02' W 063°06'0 0.0
2018-Feb-11 21:45N 18°02' W 063°06'0 0.0
2018-Feb-11 21:30N 18°02' W 063°06'0 0.0
2018-Feb-11 20:45N 18°02' W 063°06'0 0.0
2018-Feb-11 20:30N 18°02' W 063°06'0 0.0
2018-Feb-11 20:00N 18°02' W 063°06'0 0.0
2018-Feb-11 19:30N 18°02' W 063°06'0 0.0
2018-Feb-11 15:55N 18°02' W 063°06'0 0.0
2018-Feb-11 15:28N 18°02' W 063°06'0 0.0
2018-Feb-11 14:55N 18°02' W 063°06'0 0.0
2018-Feb-11 14:28N 18°02' W 063°06'0 0.0
2018-Feb-11 12:19N 18°02' W 063°06'0 0.0
2018-Feb-11 11:52N 18°02' W 063°06'0 0.0
2018-Feb-11 11:22N 18°02' W 063°06'0 0.0
2018-Feb-11 10:52N 18°02' W 063°06'0 0.0
2018-Feb-11 10:19N 18°02' W 063°06'0 0.0
2018-Feb-11 09:55N 18°02' W 063°06'0 0.0
2018-Feb-11 09:19N 18°02' W 063°06'0 0.0
2018-Feb-11 08:55N 18°02' W 063°06'0 0.0
2018-Feb-11 08:25N 18°02' W 063°06'0 0.0
2018-Feb-11 07:55N 18°02' W 063°06'0 0.0
2018-Feb-11 07:28N 18°02' W 063°06'0 0.0
2018-Feb-11 06:37N 18°02' W 063°06'0 0.0
2018-Feb-11 05:40N 18°02' W 063°06'0 0.0
2018-Feb-11 05:28N 18°02' W 063°06'0 0.0
2018-Feb-11 04:58N 18°02' W 063°06'0 0.0
2018-Feb-11 04:28N 18°02' W 063°06'0 0.0
2018-Feb-11 03:46N 18°02' W 063°06'0 0.0
2018-Feb-11 02:49N 18°02' W 063°06'0 0.0
2018-Feb-11 02:28N 18°02' W 063°06'0 0.0
2018-Feb-11 01:31N 18°02' W 063°06'0 0.0
2018-Feb-11 01:28N 18°02' W 063°06'0 0.0
2018-Feb-10 21:03N 18°02' W 063°06'0 0.0
2018-Feb-10 20:45N 18°02' W 063°06'0 0.0
2018-Feb-10 20:21N 18°02' W 063°06'0 0.0
2018-Feb-10 12:39N 18°02' W 063°06'0 0.0
2018-Feb-10 12:21N 18°02' W 063°06'0 0.0
2018-Feb-10 11:39N 18°02' W 063°06'0 0.0
2018-Feb-10 11:09N 18°02' W 063°06'0 0.0
2018-Feb-10 10:57N 18°02' W 063°06'0 0.0
2018-Feb-10 10:24N 18°02' W 063°06'0 0.0
2018-Feb-10 09:54N 18°02' W 063°06'0 0.0
2018-Feb-10 09:09N 18°02' W 063°06'0 0.0
2018-Feb-10 08:54N 18°02' W 063°06'0 0.0
2018-Feb-10 08:27N 18°02' W 063°06'0 0.0
2018-Feb-10 07:45N 18°02' W 063°06'0 0.0
2018-Feb-10 07:27N 18°02' W 063°06'0 0.0
2018-Feb-10 07:00N 18°02' W 063°06'0 0.0
2018-Feb-10 06:27N 18°02' W 063°06'0 0.0
2018-Feb-10 05:57N 18°02' W 063°06'0 0.0
2018-Feb-10 05:30N 18°02' W 063°06'0 0.0
2018-Feb-10 05:00N 18°02' W 063°06'0 0.0
2018-Feb-10 04:30N 18°02' W 063°06'0 0.0
2018-Feb-10 04:00N 18°02' W 063°06'0 0.0
2018-Feb-10 03:30N 18°02' W 063°06'0 0.0
2018-Feb-10 03:00N 18°02' W 063°06'0 0.0
2018-Feb-10 02:30N 18°02' W 063°06'0 0.0
2018-Feb-10 02:00N 18°02' W 063°06'0 0.0
2018-Feb-09 22:45N 18°02' W 063°06'  
Track history (hours):
 
Tides and Currents Weather Stations Pressure Air Temp Water Temp Dewpoint Dewpoint Depression Visibility Wind Speed Wind Dir Waves Ship Positions

Salty Pause

Owner: Volk DVM, Donald J, Orono, ME. More information available from US FCC via Universal Licensing System and Coast Guard Vessel Documentation Center.

Last reported at 2018-Feb-18 20:23 UTC. Time now 2018-Feb-19 08:29 UTC.
Position N 16°48' W 062°14'.

Length 13 m.

Type: Sailing vessel. MMSI: 367492850.

Date/timePositionNaut miles runAvg speedWind from/ knotsBaromVisibWave heightAir tempDewpointWater temp
2018-Feb-18 20:23N 16°48' W 062°14'69 1.4
2018-Feb-16 20:24N 17°40' W 063°02'3 7.1
2018-Feb-16 19:56N 17°43' W 063°03'4 6.9
2018-Feb-16 19:24N 17°47' W 063°03'3 6.9
2018-Feb-16 18:55N 17°50' W 063°04'3 6.9
2018-Feb-16 18:25N 17°54' W 063°05'4 6.9
2018-Feb-16 17:53N 17°57' W 063°05'3 6.9
2018-Feb-16 17:24N 18°01' W 063°06'2 3.7
2018-Feb-16 16:59N 18°02' W 063°06'0 0.1
2018-Feb-16 16:21N 18°02' W 063°06'0 0.0
2018-Feb-16 15:54N 18°02' W 063°06'0 0.0
2018-Feb-16 15:24N 18°02' W 063°06'0 0.0
2018-Feb-16 14:54N 18°02' W 063°06'0 0.0
2018-Feb-16 14:24N 18°02' W 063°06'0 0.0
2018-Feb-16 13:54N 18°02' W 063°06'0 0.0
2018-Feb-16 13:24N 18°02' W 063°06'0 0.0
2018-Feb-16 12:57N 18°02' W 063°06'0 0.7
2018-Feb-16 12:23N 18°02' W 063°06'0 0.0
2018-Feb-16 11:53N 18°02' W 063°06'0 0.0
2018-Feb-16 11:23N 18°02' W 063°06'0 0.0
2018-Feb-16 10:56N 18°02' W 063°06'0 0.0
2018-Feb-16 10:26N 18°02' W 063°06'0 0.0
2018-Feb-16 09:53N 18°02' W 063°06'0 0.0
2018-Feb-16 09:26N 18°02' W 063°06'0 0.0
2018-Feb-16 08:56N 18°02' W 063°06'0 0.0
2018-Feb-16 08:29N 18°02' W 063°06'0 0.0
2018-Feb-16 07:59N 18°02' W 063°06'0 0.0
2018-Feb-16 07:29N 18°02' W 063°06'0 0.0
2018-Feb-16 06:59N 18°02' W 063°06'0 0.0
2018-Feb-16 06:26N 18°02' W 063°06'0 0.0
2018-Feb-16 05:59N 18°02' W 063°06'0 0.0
2018-Feb-16 05:29N 18°02' W 063°06'0 0.0
2018-Feb-16 04:14N 18°02' W 063°06'0 0.0
2018-Feb-16 03:59N 18°02' W 063°06'0 0.0
2018-Feb-16 03:29N 18°02' W 063°06'0 0.0
2018-Feb-16 02:59N 18°02' W 063°06'0 0.0
2018-Feb-16 02:02N 18°02' W 063°06'0 0.0
2018-Feb-16 01:35N 18°02' W 063°06'0 0.0
2018-Feb-16 01:17N 18°02' W 063°06'0 0.0
2018-Feb-16 00:50N 18°02' W 063°06'0 0.0
2018-Feb-16 00:20N 18°02' W 063°06'0 0.0
2018-Feb-15 23:53N 18°02' W 063°06'0 0.0
2018-Feb-15 23:08N 18°02' W 063°06'0 0.0
2018-Feb-15 22:50N 18°02' W 063°06'0 0.0
2018-Feb-15 22:08N 18°02' W 063°06'0 0.0
2018-Feb-15 21:50N 18°02' W 063°06'0 0.0
2018-Feb-15 21:26N 18°02' W 063°06'0 0.0
2018-Feb-15 20:56N 18°02' W 063°06'0 0.0
2018-Feb-15 20:26N 18°02' W 063°06'0 0.0
2018-Feb-15 19:56N 18°02' W 063°06'0 0.0
2018-Feb-15 17:29N 18°02' W 063°06'0 0.0
2018-Feb-15 16:59N 18°02' W 063°06'0 0.0
2018-Feb-15 15:47N 18°02' W 063°06'0 0.0
2018-Feb-15 15:29N 18°02' W 063°06'0 0.0
2018-Feb-15 14:59N 18°02' W 063°06'0 0.0
2018-Feb-15 13:50N 18°02' W 063°06'0 0.0
2018-Feb-15 13:20N 18°02' W 063°06'0 0.0
2018-Feb-15 12:50N 18°02' W 063°06'0 0.0
2018-Feb-15 12:20N 18°02' W 063°06'0 0.0
2018-Feb-15 11:50N 18°02' W 063°06'0 0.0
2018-Feb-15 11:23N 18°02' W 063°06'0 0.0
2018-Feb-15 10:53N 18°02' W 063°06'0 0.0
2018-Feb-15 10:20N 18°02' W 063°06'0 0.0
2018-Feb-15 09:56N 18°02' W 063°06'0 0.0
2018-Feb-15 09:20N 18°02' W 063°06'0 0.0
2018-Feb-15 08:08N 18°02' W 063°06'0 0.0
2018-Feb-15 07:56N 18°02' W 063°06'0 0.0
2018-Feb-15 07:29N 18°02' W 063°06'0 0.0
2018-Feb-15 06:59N 18°02' W 063°06'0 0.0
2018-Feb-15 06:14N 18°02' W 063°06'0 0.0
2018-Feb-15 05:59N 18°02' W 063°06'0 0.0
2018-Feb-15 05:26N 18°02' W 063°06'0 0.0
2018-Feb-15 04:59N 18°02' W 063°06'0 0.0
2018-Feb-15 04:29N 18°02' W 063°06'0 0.0
2018-Feb-15 03:56N 18°02' W 063°06'0 0.0
2018-Feb-15 03:29N 18°02' W 063°06'0 0.0
2018-Feb-15 02:59N 18°02' W 063°06'0 0.0
2018-Feb-15 02:14N 18°02' W 063°06'0 0.0
2018-Feb-15 01:59N 18°02' W 063°06'0 0.0
2018-Feb-15 01:20N 18°02' W 063°06'0 0.0
2018-Feb-15 00:20N 18°02' W 063°06'0 0.0
2018-Feb-14 23:47N 18°02' W 063°06'0 0.0
2018-Feb-14 22:38N 18°02' W 063°06'0 0.0
2018-Feb-14 21:38N 18°02' W 063°06'0 0.0
2018-Feb-14 21:20N 18°02' W 063°06'0 0.0
2018-Feb-14 20:53N 18°02' W 063°06'0 0.0
2018-Feb-14 20:26N 18°02' W 063°06'0 0.0
2018-Feb-14 19:41N 18°02' W 063°06'0 0.0
2018-Feb-14 19:26N 18°02' W 063°06'0 0.0
2018-Feb-14 18:53N 18°02' W 063°06'0 0.0
2018-Feb-14 18:26N 18°02' W 063°06'0 0.0
2018-Feb-14 17:56N 18°02' W 063°06'0 0.0
2018-Feb-14 17:29N 18°02' W 063°06'0 0.0
2018-Feb-14 16:59N 18°02' W 063°06'0 0.0
2018-Feb-14 16:29N 18°02' W 063°06'0 0.0
2018-Feb-14 15:56N 18°02' W 063°06'0 0.0
2018-Feb-14 15:29N 18°02' W 063°06'0 0.0
2018-Feb-14 14:59N 18°02' W 063°06'0 0.0
2018-Feb-14 14:02N 18°02' W 063°06'0 0.0
2018-Feb-14 13:59N 18°02' W 063°06'0 0.0
2018-Feb-14 13:29N 18°02' W 063°06'0 0.0
2018-Feb-14 12:44N 18°02' W 063°06'0 0.0
2018-Feb-14 12:29N 18°02' W 063°06'0 0.0
2018-Feb-14 11:59N 18°02' W 063°06'0 0.0
2018-Feb-14 11:29N 18°02' W 063°06'0 0.0
2018-Feb-14 10:47N 18°02' W 063°06'0 0.0
2018-Feb-14 10:20N 18°02' W 063°06'0 0.0
2018-Feb-14 09:50N 18°02' W 063°06'0 0.0
2018-Feb-14 09:20N 18°02' W 063°06'0 0.0
2018-Feb-14 08:50N 18°02' W 063°06'0 0.0
2018-Feb-14 08:23N 18°02' W 063°06'0 0.0
2018-Feb-14 07:38N 18°02' W 063°06'0 0.0
2018-Feb-14 07:23N 18°02' W 063°06'0 0.0
2018-Feb-14 06:50N 18°02' W 063°06'0 0.0
2018-Feb-14 06:11N 18°02' W 063°06'0 0.0
2018-Feb-14 05:53N 18°02' W 063°06'0 0.0
2018-Feb-14 05:26N 18°02' W 063°06'0 0.0
2018-Feb-14 04:41N 18°02' W 063°06'0 0.0
2018-Feb-14 04:23N 18°02' W 063°06'0 0.0
2018-Feb-14 03:59N 18°02' W 063°06'0 0.0
2018-Feb-14 02:56N 18°02' W 063°06'0 0.0
2018-Feb-14 02:14N 18°02' W 063°06'0 0.0
2018-Feb-14 01:59N 18°02' W 063°06'0 0.0
2018-Feb-14 01:29N 18°02' W 063°06'0 0.0
2018-Feb-14 00:47N 18°02' W 063°06'0 0.0
2018-Feb-14 00:29N 18°02' W 063°06'0 0.0
2018-Feb-13 23:59N 18°02' W 063°06'0 0.0
2018-Feb-13 23:02N 18°02' W 063°06'0 0.1
2018-Feb-13 22:59N 18°02' W 063°06'0 0.0
2018-Feb-13 22:17N 18°02' W 063°06'0 0.0
2018-Feb-13 21:59N 18°02' W 063°06'0 0.0
2018-Feb-13 20:47N 18°02' W 063°06'0 0.0
2018-Feb-13 20:20N 18°02' W 063°06'0 0.0
2018-Feb-13 19:50N 18°02' W 063°06'0 0.0
2018-Feb-13 19:17N 18°02' W 063°06'0 0.0
2018-Feb-13 18:53N 18°02' W 063°06'0 0.0
2018-Feb-13 18:23N 18°02' W 063°06'0 0.0
2018-Feb-13 13:03N 18°02' W 063°06'0 0.0
2018-Feb-13 13:00N 18°02' W 063°06'0 0.0
2018-Feb-13 12:30N 18°02' W 063°06'0 0.0
2018-Feb-13 12:00N 18°02' W 063°06'0 0.0
2018-Feb-13 11:15N 18°02' W 063°06'0 0.0
2018-Feb-13 10:51N 18°02' W 063°06'0 0.0
2018-Feb-13 10:18N 18°02' W 063°06'0 0.0
2018-Feb-13 09:51N 18°02' W 063°06'0 0.0
2018-Feb-13 09:18N 18°02' W 063°06'0 0.0
2018-Feb-13 08:18N 18°02' W 063°06'0 0.0
2018-Feb-13 07:54N 18°02' W 063°06'0 0.0
2018-Feb-13 07:22N 18°02' W 063°06'0 0.0
2018-Feb-13 06:54N 18°02' W 063°06'0 0.0
2018-Feb-13 06:24N 18°02' W 063°06'0 0.0
2018-Feb-13 05:24N 18°02' W 063°06'0 0.0
2018-Feb-13 04:54N 18°02' W 063°06'0 0.0
2018-Feb-13 04:27N 18°02' W 063°06'0 0.0
2018-Feb-13 03:54N 18°02' W 063°06'0 0.0
2018-Feb-13 03:27N 18°02' W 063°06'0 0.0
2018-Feb-13 03:00N 18°02' W 063°06'0 0.0
2018-Feb-13 02:24N 18°02' W 063°06'0 0.0
2018-Feb-13 02:00N 18°02' W 063°06'0 0.0
2018-Feb-13 01:30N 18°02' W 063°06'0 0.0
2018-Feb-13 01:00N 18°02' W 063°06'0 0.0
2018-Feb-13 00:30N 18°02' W 063°06'0 0.0
2018-Feb-12 23:45N 18°02' W 063°06'0 0.0
2018-Feb-12 23:12N 18°02' W 063°06'0 0.0
2018-Feb-12 22:57N 18°02' W 063°06'0 0.0
2018-Feb-12 22:30N 18°02' W 063°06'0 0.0
2018-Feb-12 21:45N 18°02' W 063°06'0 0.0
2018-Feb-12 21:30N 18°02' W 063°06'0 0.0
2018-Feb-12 21:00N 18°02' W 063°06'0 0.0
2018-Feb-12 20:30N 18°02' W 063°06'0 0.0
2018-Feb-12 19:51N 18°02' W 063°06'0 0.0
2018-Feb-12 19:18N 18°02' W 063°06'0 0.0
2018-Feb-12 18:51N 18°02' W 063°06'0 0.0
2018-Feb-12 18:24N 18°02' W 063°06'0 0.0
2018-Feb-12 17:54N 18°02' W 063°06'0 0.0
2018-Feb-12 17:21N 18°02' W 063°06'0 0.0
2018-Feb-12 16:54N 18°02' W 063°06'0 0.0
2018-Feb-12 16:12N 18°02' W 063°06'0 0.0
2018-Feb-12 15:06N 18°02' W 063°06'0 0.0
2018-Feb-12 14:36N 18°02' W 063°06'0 0.0
2018-Feb-12 14:27N 18°02' W 063°06'0 0.0
2018-Feb-12 13:39N 18°02' W 063°06'0 0.0
2018-Feb-12 13:27N 18°02' W 063°06'0 0.0
2018-Feb-12 13:00N 18°02' W 063°06'0 0.0
2018-Feb-12 12:30N 18°02' W 063°06'0 0.0
2018-Feb-12 11:45N 18°02' W 063°06'0 0.0
2018-Feb-12 11:30N 18°02' W 063°06'0 0.0
2018-Feb-12 11:00N 18°02' W 063°06'0 0.0
2018-Feb-12 10:30N 18°02' W 063°06'0 0.0
2018-Feb-12 09:27N 18°02' W 063°06'0 0.0
2018-Feb-12 09:00N 18°02' W 063°06'0 0.0
2018-Feb-12 08:30N 18°02' W 063°06'0 0.0
2018-Feb-12 08:00N 18°02' W 063°06'0 0.0
2018-Feb-12 07:30N 18°02' W 063°06'0 0.0
2018-Feb-12 07:00N 18°02' W 063°06'0 0.0
2018-Feb-12 06:06N 18°02' W 063°06'0 0.0
2018-Feb-12 05:49N 18°02' W 063°06'0 0.0
2018-Feb-12 05:24N 18°02' W 063°06'0 0.0
2018-Feb-12 04:48N 18°02' W 063°06'0 0.0
2018-Feb-12 04:21N 18°02' W 063°06'0 0.0
2018-Feb-12 03:57N 18°02' W 063°06'0 0.0
2018-Feb-12 03:21N 18°02' W 063°06'0 0.0
2018-Feb-12 02:54N 18°02' W 063°06'0 0.0
2018-Feb-12 02:24N 18°02' W 063°06'0 0.0
2018-Feb-12 01:42N 18°02' W 063°06'0 0.0
2018-Feb-12 01:27N 18°02' W 063°06'0 0.0
2018-Feb-12 00:57N 18°02' W 063°06'0 0.0
2018-Feb-12 00:27N 18°02' W 063°06'0 0.0
2018-Feb-11 23:57N 18°02' W 063°06'0 0.0
2018-Feb-11 23:30N 18°02' W 063°06'0 0.0
2018-Feb-11 23:00N 18°02' W 063°06'0 0.0
2018-Feb-11 22:30N 18°02' W 063°06'0 0.0
2018-Feb-11 21:45N 18°02' W 063°06'0 0.0
2018-Feb-11 21:30N 18°02' W 063°06'0 0.0
2018-Feb-11 20:45N 18°02' W 063°06'0 0.0
2018-Feb-11 20:30N 18°02' W 063°06'0 0.0
2018-Feb-11 20:00N 18°02' W 063°06'0 0.0
2018-Feb-11 19:30N 18°02' W 063°06'0 0.0
2018-Feb-11 15:55N 18°02' W 063°06'0 0.0
2018-Feb-11 15:28N 18°02' W 063°06'0 0.0
2018-Feb-11 14:55N 18°02' W 063°06'0 0.0
2018-Feb-11 14:28N 18°02' W 063°06'0 0.0
2018-Feb-11 12:19N 18°02' W 063°06'0 0.0
2018-Feb-11 11:52N 18°02' W 063°06'0 0.0
2018-Feb-11 11:22N 18°02' W 063°06'0 0.0
2018-Feb-11 10:52N 18°02' W 063°06'0 0.0
2018-Feb-11 10:19N 18°02' W 063°06'0 0.0
2018-Feb-11 09:55N 18°02' W 063°06'0 0.0
2018-Feb-11 09:19N 18°02' W 063°06'0 0.0
2018-Feb-11 08:55N 18°02' W 063°06'0 0.0
2018-Feb-11 08:25N 18°02' W 063°06'0 0.0
2018-Feb-11 07:55N 18°02' W 063°06'0 0.0
2018-Feb-11 07:28N 18°02' W 063°06'0 0.0
2018-Feb-11 06:37N 18°02' W 063°06'0 0.0
2018-Feb-11 05:40N 18°02' W 063°06'0 0.0
2018-Feb-11 05:28N 18°02' W 063°06'0 0.0
2018-Feb-11 04:58N 18°02' W 063°06'0 0.0
2018-Feb-11 04:28N 18°02' W 063°06'0 0.0
2018-Feb-11 03:46N 18°02' W 063°06'0 0.0
2018-Feb-11 02:49N 18°02' W 063°06'0 0.0
2018-Feb-11 02:28N 18°02' W 063°06'0 0.0
2018-Feb-11 01:31N 18°02' W 063°06'0 0.0
2018-Feb-11 01:28N 18°02' W 063°06'0 0.0
2018-Feb-10 21:03N 18°02' W 063°06'0 0.0
2018-Feb-10 20:45N 18°02' W 063°06'0 0.0
2018-Feb-10 20:21N 18°02' W 063°06'0 0.0
2018-Feb-10 12:39N 18°02' W 063°06'0 0.0
2018-Feb-10 12:21N 18°02' W 063°06'0 0.0
2018-Feb-10 11:39N 18°02' W 063°06'0 0.0
2018-Feb-10 11:09N 18°02' W 063°06'0 0.0
2018-Feb-10 10:57N 18°02' W 063°06'0 0.0
2018-Feb-10 10:24N 18°02' W 063°06'0 0.0
2018-Feb-10 09:54N 18°02' W 063°06'0 0.0
2018-Feb-10 09:09N 18°02' W 063°06'0 0.0
2018-Feb-10 08:54N 18°02' W 063°06'0 0.0
2018-Feb-10 08:27N 18°02' W 063°06'0 0.0
2018-Feb-10 07:45N 18°02' W 063°06'0 0.0
2018-Feb-10 07:27N 18°02' W 063°06'0 0.0
2018-Feb-10 07:00N 18°02' W 063°06'0 0.0
2018-Feb-10 06:27N 18°02' W 063°06'0 0.0
2018-Feb-10 05:57N 18°02' W 063°06'0 0.0
2018-Feb-10 05:30N 18°02' W 063°06'0 0.0
2018-Feb-10 05:00N 18°02' W 063°06'0 0.0
2018-Feb-10 04:30N 18°02' W 063°06'0 0.0
2018-Feb-10 04:00N 18°02' W 063°06'0 0.0
2018-Feb-10 03:30N 18°02' W 063°06'0 0.0
2018-Feb-10 03:00N 18°02' W 063°06'0 0.0
2018-Feb-10 02:30N 18°02' W 063°06'0 0.0
2018-Feb-10 02:00N 18°02' W 063°06'0 0.0
2018-Feb-09 22:45N 18°02' W 063°06'  

Dump ship's entire track history